sensor_id;sensor_type;location;lat;lon;timestamp;P1;durP1;ratioP1;P2;durP2;ratioP2
15331;SDS011;7766;51.534;6.722;2023-12-07T00:01:09;17.50;;;12.23;;
15331;SDS011;7766;51.534;6.722;2023-12-07T00:03:35;17.43;;;12.63;;
15331;SDS011;7766;51.534;6.722;2023-12-07T00:06:01;19.53;;;12.80;;
15331;SDS011;7766;51.534;6.722;2023-12-07T00:08:27;17.10;;;11.77;;
15331;SDS011;7766;51.534;6.722;2023-12-07T00:10:53;15.43;;;11.90;;
15331;SDS011;7766;51.534;6.722;2023-12-07T00:13:19;18.47;;;11.80;;
15331;SDS011;7766;51.534;6.722;2023-12-07T00:15:46;17.83;;;11.87;;
15331;SDS011;7766;51.534;6.722;2023-12-07T00:18:11;15.97;;;11.40;;
15331;SDS011;7766;51.534;6.722;2023-12-07T00:20:37;16.53;;;11.73;;
15331;SDS011;7766;51.534;6.722;2023-12-07T00:23:03;16.87;;;11.83;;
15331;SDS011;7766;51.534;6.722;2023-12-07T00:25:28;17.60;;;11.73;;
15331;SDS011;7766;51.534;6.722;2023-12-07T00:27:54;20.20;;;12.53;;
15331;SDS011;7766;51.534;6.722;2023-12-07T00:30:20;31.37;;;17.00;;
15331;SDS011;7766;51.534;6.722;2023-12-07T00:32:46;46.50;;;23.97;;
15331;SDS011;7766;51.534;6.722;2023-12-07T00:35:12;26.67;;;15.97;;
15331;SDS011;7766;51.534;6.722;2023-12-07T00:37:39;20.10;;;11.70;;
15331;SDS011;7766;51.534;6.722;2023-12-07T00:40:05;15.43;;;11.20;;
15331;SDS011;7766;51.534;6.722;2023-12-07T00:42:32;16.17;;;11.97;;
15331;SDS011;7766;51.534;6.722;2023-12-07T00:44:59;18.10;;;11.97;;
15331;SDS011;7766;51.534;6.722;2023-12-07T00:47:25;19.03;;;11.47;;
15331;SDS011;7766;51.534;6.722;2023-12-07T00:49:51;16.50;;;11.53;;
15331;SDS011;7766;51.534;6.722;2023-12-07T00:52:17;16.80;;;11.03;;
15331;SDS011;7766;51.534;6.722;2023-12-07T00:54:43;18.03;;;11.73;;
15331;SDS011;7766;51.534;6.722;2023-12-07T00:57:09;17.00;;;11.83;;
15331;SDS011;7766;51.534;6.722;2023-12-07T00:59:35;17.57;;;12.17;;
15331;SDS011;7766;51.534;6.722;2023-12-07T01:02:01;16.60;;;11.63;;
15331;SDS011;7766;51.534;6.722;2023-12-07T01:04:28;16.63;;;10.90;;
15331;SDS011;7766;51.534;6.722;2023-12-07T01:06:54;14.20;;;10.97;;
15331;SDS011;7766;51.534;6.722;2023-12-07T01:09:19;17.47;;;11.70;;
15331;SDS011;7766;51.534;6.722;2023-12-07T01:11:46;16.40;;;11.10;;
15331;SDS011;7766;51.534;6.722;2023-12-07T01:14:12;14.97;;;11.23;;
15331;SDS011;7766;51.534;6.722;2023-12-07T01:16:38;17.33;;;11.40;;
15331;SDS011;7766;51.534;6.722;2023-12-07T01:19:03;18.63;;;11.20;;
15331;SDS011;7766;51.534;6.722;2023-12-07T01:21:29;16.73;;;11.57;;
15331;SDS011;7766;51.534;6.722;2023-12-07T01:23:55;19.20;;;11.80;;
15331;SDS011;7766;51.534;6.722;2023-12-07T01:26:21;16.63;;;11.30;;
15331;SDS011;7766;51.534;6.722;2023-12-07T01:28:47;20.10;;;11.77;;
15331;SDS011;7766;51.534;6.722;2023-12-07T01:31:12;16.77;;;11.83;;
15331;SDS011;7766;51.534;6.722;2023-12-07T01:33:38;14.83;;;10.60;;
15331;SDS011;7766;51.534;6.722;2023-12-07T01:36:04;17.27;;;11.43;;
15331;SDS011;7766;51.534;6.722;2023-12-07T01:38:30;19.50;;;12.40;;
15331;SDS011;7766;51.534;6.722;2023-12-07T01:40:55;16.53;;;11.83;;
15331;SDS011;7766;51.534;6.722;2023-12-07T01:43:22;17.17;;;11.43;;
15331;SDS011;7766;51.534;6.722;2023-12-07T01:45:48;17.30;;;12.20;;
15331;SDS011;7766;51.534;6.722;2023-12-07T01:48:16;17.00;;;12.73;;
15331;SDS011;7766;51.534;6.722;2023-12-07T01:50:42;14.70;;;11.50;;
15331;SDS011;7766;51.534;6.722;2023-12-07T01:53:08;21.03;;;13.50;;
15331;SDS011;7766;51.534;6.722;2023-12-07T01:55:34;18.00;;;12.87;;
15331;SDS011;7766;51.534;6.722;2023-12-07T01:58:00;18.10;;;12.93;;
15331;SDS011;7766;51.534;6.722;2023-12-07T02:00:26;20.83;;;12.80;;
15331;SDS011;7766;51.534;6.722;2023-12-07T02:02:52;18.60;;;11.97;;
15331;SDS011;7766;51.534;6.722;2023-12-07T02:05:18;18.40;;;12.53;;
15331;SDS011;7766;51.534;6.722;2023-12-07T02:07:44;16.57;;;11.50;;
15331;SDS011;7766;51.534;6.722;2023-12-07T02:10:10;19.43;;;12.70;;
15331;SDS011;7766;51.534;6.722;2023-12-07T02:12:38;21.93;;;13.17;;
15331;SDS011;7766;51.534;6.722;2023-12-07T02:15:04;27.77;;;12.00;;
15331;SDS011;7766;51.534;6.722;2023-12-07T02:17:35;20.23;;;13.17;;
15331;SDS011;7766;51.534;6.722;2023-12-07T02:22:59;22.70;;;14.77;;
15331;SDS011;7766;51.534;6.722;2023-12-07T02:25:29;25.03;;;14.83;;
15331;SDS011;7766;51.534;6.722;2023-12-07T02:27:57;20.77;;;13.67;;
15331;SDS011;7766;51.534;6.722;2023-12-07T02:30:23;19.73;;;13.97;;
15331;SDS011;7766;51.534;6.722;2023-12-07T02:32:49;25.60;;;15.17;;
15331;SDS011;7766;51.534;6.722;2023-12-07T02:35:15;23.37;;;15.23;;
15331;SDS011;7766;51.534;6.722;2023-12-07T02:37:42;25.63;;;14.43;;
15331;SDS011;7766;51.534;6.722;2023-12-07T02:40:24;26.77;;;14.80;;
15331;SDS011;7766;51.534;6.722;2023-12-07T02:42:51;31.07;;;15.17;;
15331;SDS011;7766;51.534;6.722;2023-12-07T02:45:18;28.07;;;15.70;;
15331;SDS011;7766;51.534;6.722;2023-12-07T02:47:43;32.73;;;17.23;;
15331;SDS011;7766;51.534;6.722;2023-12-07T02:50:10;26.10;;;15.80;;
15331;SDS011;7766;51.534;6.722;2023-12-07T02:52:36;37.10;;;17.20;;
15331;SDS011;7766;51.534;6.722;2023-12-07T02:55:02;30.87;;;16.13;;
15331;SDS011;7766;51.534;6.722;2023-12-07T02:57:28;33.10;;;16.50;;
15331;SDS011;7766;51.534;6.722;2023-12-07T02:59:55;31.27;;;17.17;;
15331;SDS011;7766;51.534;6.722;2023-12-07T03:02:21;38.80;;;18.37;;
15331;SDS011;7766;51.534;6.722;2023-12-07T03:04:47;29.20;;;17.07;;
15331;SDS011;7766;51.534;6.722;2023-12-07T03:07:13;28.03;;;16.83;;
15331;SDS011;7766;51.534;6.722;2023-12-07T03:09:39;29.50;;;17.33;;
15331;SDS011;7766;51.534;6.722;2023-12-07T03:12:04;31.10;;;17.70;;
15331;SDS011;7766;51.534;6.722;2023-12-07T03:14:31;50.57;;;18.30;;
15331;SDS011;7766;51.534;6.722;2023-12-07T03:16:57;39.87;;;19.77;;
15331;SDS011;7766;51.534;6.722;2023-12-07T03:19:23;36.77;;;19.17;;
15331;SDS011;7766;51.534;6.722;2023-12-07T03:21:49;46.43;;;18.43;;
15331;SDS011;7766;51.534;6.722;2023-12-07T03:24:15;33.20;;;17.67;;
15331;SDS011;7766;51.534;6.722;2023-12-07T03:26:41;33.63;;;18.17;;
15331;SDS011;7766;51.534;6.722;2023-12-07T03:29:07;33.07;;;18.03;;
15331;SDS011;7766;51.534;6.722;2023-12-07T03:31:33;34.63;;;18.53;;
15331;SDS011;7766;51.534;6.722;2023-12-07T03:33:59;41.20;;;18.63;;
15331;SDS011;7766;51.534;6.722;2023-12-07T03:36:26;37.37;;;18.10;;
15331;SDS011;7766;51.534;6.722;2023-12-07T03:38:52;32.37;;;17.20;;
15331;SDS011;7766;51.534;6.722;2023-12-07T03:41:18;40.27;;;20.10;;
15331;SDS011;7766;51.534;6.722;2023-12-07T03:43:43;47.70;;;20.97;;
15331;SDS011;7766;51.534;6.722;2023-12-07T03:46:09;37.60;;;19.57;;
15331;SDS011;7766;51.534;6.722;2023-12-07T03:48:35;37.60;;;18.80;;
15331;SDS011;7766;51.534;6.722;2023-12-07T03:51:01;40.80;;;19.33;;
15331;SDS011;7766;51.534;6.722;2023-12-07T03:53:27;30.27;;;18.20;;
15331;SDS011;7766;51.534;6.722;2023-12-07T03:55:53;33.93;;;19.60;;
15331;SDS011;7766;51.534;6.722;2023-12-07T03:58:20;36.07;;;18.70;;
15331;SDS011;7766;51.534;6.722;2023-12-07T04:00:46;37.20;;;18.47;;
15331;SDS011;7766;51.534;6.722;2023-12-07T04:03:12;38.03;;;19.10;;
15331;SDS011;7766;51.534;6.722;2023-12-07T04:05:38;36.83;;;19.70;;
15331;SDS011;7766;51.534;6.722;2023-12-07T04:08:04;41.00;;;19.50;;
15331;SDS011;7766;51.534;6.722;2023-12-07T04:10:30;44.10;;;18.83;;
15331;SDS011;7766;51.534;6.722;2023-12-07T04:12:56;42.17;;;18.63;;
15331;SDS011;7766;51.534;6.722;2023-12-07T04:15:22;32.83;;;18.23;;
15331;SDS011;7766;51.534;6.722;2023-12-07T04:17:48;33.30;;;18.20;;
15331;SDS011;7766;51.534;6.722;2023-12-07T04:20:14;38.60;;;19.07;;
15331;SDS011;7766;51.534;6.722;2023-12-07T04:22:40;33.87;;;17.60;;
15331;SDS011;7766;51.534;6.722;2023-12-07T04:25:06;37.43;;;18.10;;
15331;SDS011;7766;51.534;6.722;2023-12-07T04:27:33;39.20;;;19.90;;
15331;SDS011;7766;51.534;6.722;2023-12-07T04:29:58;35.03;;;18.73;;
15331;SDS011;7766;51.534;6.722;2023-12-07T04:32:24;33.73;;;19.70;;
15331;SDS011;7766;51.534;6.722;2023-12-07T04:34:51;34.40;;;19.43;;
15331;SDS011;7766;51.534;6.722;2023-12-07T04:37:16;37.50;;;19.60;;
15331;SDS011;7766;51.534;6.722;2023-12-07T04:39:43;35.53;;;19.23;;
15331;SDS011;7766;51.534;6.722;2023-12-07T04:42:08;33.87;;;20.00;;
15331;SDS011;7766;51.534;6.722;2023-12-07T04:44:34;44.87;;;21.07;;
15331;SDS011;7766;51.534;6.722;2023-12-07T04:46:59;40.30;;;20.10;;
15331;SDS011;7766;51.534;6.722;2023-12-07T04:49:26;43.80;;;22.17;;
15331;SDS011;7766;51.534;6.722;2023-12-07T04:51:51;46.03;;;23.67;;
15331;SDS011;7766;51.534;6.722;2023-12-07T04:54:17;46.03;;;24.73;;
15331;SDS011;7766;51.534;6.722;2023-12-07T04:56:44;52.77;;;24.73;;
15331;SDS011;7766;51.534;6.722;2023-12-07T04:59:10;54.70;;;26.80;;
15331;SDS011;7766;51.534;6.722;2023-12-07T05:01:36;52.17;;;24.20;;
15331;SDS011;7766;51.534;6.722;2023-12-07T05:04:02;52.97;;;26.17;;
15331;SDS011;7766;51.534;6.722;2023-12-07T05:06:29;65.07;;;29.50;;
15331;SDS011;7766;51.534;6.722;2023-12-07T05:08:57;55.83;;;29.03;;
15331;SDS011;7766;51.534;6.722;2023-12-07T05:11:24;63.53;;;29.93;;
15331;SDS011;7766;51.534;6.722;2023-12-07T05:13:49;63.40;;;29.33;;
15331;SDS011;7766;51.534;6.722;2023-12-07T05:16:16;60.83;;;27.67;;
15331;SDS011;7766;51.534;6.722;2023-12-07T05:18:42;61.17;;;27.27;;
15331;SDS011;7766;51.534;6.722;2023-12-07T05:21:09;57.27;;;27.53;;
15331;SDS011;7766;51.534;6.722;2023-12-07T05:23:35;52.27;;;27.87;;
15331;SDS011;7766;51.534;6.722;2023-12-07T05:26:00;56.77;;;28.03;;
15331;SDS011;7766;51.534;6.722;2023-12-07T05:28:26;47.13;;;26.47;;
15331;SDS011;7766;51.534;6.722;2023-12-07T05:30:52;52.70;;;25.83;;
15331;SDS011;7766;51.534;6.722;2023-12-07T05:33:18;58.57;;;27.67;;
15331;SDS011;7766;51.534;6.722;2023-12-07T05:35:44;50.57;;;25.53;;
15331;SDS011;7766;51.534;6.722;2023-12-07T05:38:10;48.90;;;26.33;;
15331;SDS011;7766;51.534;6.722;2023-12-07T05:40:36;50.57;;;22.07;;
15331;SDS011;7766;51.534;6.722;2023-12-07T05:43:02;50.80;;;26.60;;
15331;SDS011;7766;51.534;6.722;2023-12-07T05:45:28;46.07;;;24.10;;
15331;SDS011;7766;51.534;6.722;2023-12-07T05:47:55;52.50;;;24.13;;
15331;SDS011;7766;51.534;6.722;2023-12-07T05:50:20;60.13;;;28.30;;
15331;SDS011;7766;51.534;6.722;2023-12-07T05:52:46;54.00;;;24.63;;
15331;SDS011;7766;51.534;6.722;2023-12-07T05:55:12;55.10;;;26.77;;
15331;SDS011;7766;51.534;6.722;2023-12-07T05:57:38;48.37;;;22.17;;
15331;SDS011;7766;51.534;6.722;2023-12-07T06:00:05;49.77;;;25.53;;
15331;SDS011;7766;51.534;6.722;2023-12-07T06:02:34;50.67;;;25.73;;
15331;SDS011;7766;51.534;6.722;2023-12-07T06:05:00;54.73;;;25.43;;
15331;SDS011;7766;51.534;6.722;2023-12-07T06:07:25;52.87;;;25.50;;
15331;SDS011;7766;51.534;6.722;2023-12-07T06:09:51;51.00;;;23.20;;
15331;SDS011;7766;51.534;6.722;2023-12-07T06:12:17;58.13;;;26.57;;
15331;SDS011;7766;51.534;6.722;2023-12-07T06:14:43;50.80;;;24.67;;
15331;SDS011;7766;51.534;6.722;2023-12-07T06:17:09;52.87;;;25.77;;
15331;SDS011;7766;51.534;6.722;2023-12-07T06:19:35;59.00;;;25.80;;
15331;SDS011;7766;51.534;6.722;2023-12-07T06:22:01;51.47;;;25.53;;
15331;SDS011;7766;51.534;6.722;2023-12-07T06:24:27;61.03;;;27.27;;
15331;SDS011;7766;51.534;6.722;2023-12-07T06:26:53;45.60;;;24.33;;
15331;SDS011;7766;51.534;6.722;2023-12-07T06:29:19;47.50;;;21.53;;
15331;SDS011;7766;51.534;6.722;2023-12-07T06:31:45;51.60;;;24.97;;
15331;SDS011;7766;51.534;6.722;2023-12-07T06:34:11;50.53;;;25.47;;
15331;SDS011;7766;51.534;6.722;2023-12-07T06:36:36;59.13;;;26.03;;
15331;SDS011;7766;51.534;6.722;2023-12-07T06:39:02;57.83;;;26.53;;
15331;SDS011;7766;51.534;6.722;2023-12-07T06:41:28;49.07;;;23.93;;
15331;SDS011;7766;51.534;6.722;2023-12-07T06:43:54;43.80;;;22.17;;
15331;SDS011;7766;51.534;6.722;2023-12-07T06:46:20;55.20;;;25.73;;
15331;SDS011;7766;51.534;6.722;2023-12-07T06:48:46;51.47;;;26.23;;
15331;SDS011;7766;51.534;6.722;2023-12-07T06:51:12;54.67;;;26.47;;
15331;SDS011;7766;51.534;6.722;2023-12-07T06:53:39;54.33;;;25.53;;
15331;SDS011;7766;51.534;6.722;2023-12-07T06:56:06;60.87;;;26.43;;
15331;SDS011;7766;51.534;6.722;2023-12-07T06:58:32;64.60;;;26.70;;
15331;SDS011;7766;51.534;6.722;2023-12-07T07:00:58;60.13;;;27.37;;
15331;SDS011;7766;51.534;6.722;2023-12-07T07:03:23;61.90;;;26.57;;
15331;SDS011;7766;51.534;6.722;2023-12-07T07:05:50;52.40;;;25.07;;
15331;SDS011;7766;51.534;6.722;2023-12-07T07:08:16;66.10;;;27.67;;
15331;SDS011;7766;51.534;6.722;2023-12-07T07:10:41;63.07;;;27.07;;
15331;SDS011;7766;51.534;6.722;2023-12-07T07:13:07;60.47;;;27.00;;
15331;SDS011;7766;51.534;6.722;2023-12-07T07:15:33;60.10;;;26.87;;
15331;SDS011;7766;51.534;6.722;2023-12-07T07:18:00;61.97;;;29.00;;
15331;SDS011;7766;51.534;6.722;2023-12-07T07:20:27;65.43;;;27.63;;
15331;SDS011;7766;51.534;6.722;2023-12-07T07:22:54;65.03;;;28.23;;
15331;SDS011;7766;51.534;6.722;2023-12-07T07:25:20;59.67;;;27.70;;
15331;SDS011;7766;51.534;6.722;2023-12-07T07:27:47;64.90;;;30.27;;
15331;SDS011;7766;51.534;6.722;2023-12-07T07:30:13;60.83;;;27.20;;
15331;SDS011;7766;51.534;6.722;2023-12-07T07:32:39;64.33;;;29.77;;
15331;SDS011;7766;51.534;6.722;2023-12-07T07:35:06;69.40;;;30.13;;
15331;SDS011;7766;51.534;6.722;2023-12-07T07:37:32;66.80;;;28.47;;
15331;SDS011;7766;51.534;6.722;2023-12-07T07:39:58;63.30;;;27.17;;
15331;SDS011;7766;51.534;6.722;2023-12-07T07:42:31;65.80;;;29.07;;
15331;SDS011;7766;51.534;6.722;2023-12-07T07:44:57;60.93;;;29.37;;
15331;SDS011;7766;51.534;6.722;2023-12-07T07:47:23;61.87;;;27.33;;
15331;SDS011;7766;51.534;6.722;2023-12-07T07:49:49;69.00;;;29.17;;
15331;SDS011;7766;51.534;6.722;2023-12-07T07:52:15;66.67;;;28.70;;
15331;SDS011;7766;51.534;6.722;2023-12-07T07:54:41;64.90;;;28.83;;
15331;SDS011;7766;51.534;6.722;2023-12-07T07:57:08;64.37;;;29.07;;
15331;SDS011;7766;51.534;6.722;2023-12-07T07:59:34;63.03;;;29.63;;
15331;SDS011;7766;51.534;6.722;2023-12-07T08:01:59;60.90;;;28.33;;
15331;SDS011;7766;51.534;6.722;2023-12-07T08:04:25;64.93;;;29.70;;
15331;SDS011;7766;51.534;6.722;2023-12-07T08:06:51;61.33;;;28.17;;
15331;SDS011;7766;51.534;6.722;2023-12-07T08:09:17;52.60;;;27.43;;
15331;SDS011;7766;51.534;6.722;2023-12-07T08:11:42;54.67;;;25.83;;
15331;SDS011;7766;51.534;6.722;2023-12-07T08:14:08;67.87;;;28.00;;
15331;SDS011;7766;51.534;6.722;2023-12-07T08:16:34;63.17;;;29.00;;
15331;SDS011;7766;51.534;6.722;2023-12-07T08:19:00;64.20;;;28.83;;
15331;SDS011;7766;51.534;6.722;2023-12-07T08:21:25;78.97;;;37.27;;
15331;SDS011;7766;51.534;6.722;2023-12-07T08:23:51;67.30;;;28.87;;
15331;SDS011;7766;51.534;6.722;2023-12-07T08:26:17;58.97;;;26.07;;
15331;SDS011;7766;51.534;6.722;2023-12-07T08:28:43;57.90;;;26.70;;
15331;SDS011;7766;51.534;6.722;2023-12-07T08:31:09;59.90;;;25.90;;
15331;SDS011;7766;51.534;6.722;2023-12-07T08:33:35;57.37;;;25.33;;
15331;SDS011;7766;51.534;6.722;2023-12-07T08:36:04;60.67;;;25.23;;
15331;SDS011;7766;51.534;6.722;2023-12-07T08:38:30;60.43;;;27.33;;
15331;SDS011;7766;51.534;6.722;2023-12-07T08:40:56;54.47;;;24.77;;
15331;SDS011;7766;51.534;6.722;2023-12-07T08:43:23;53.13;;;23.67;;
15331;SDS011;7766;51.534;6.722;2023-12-07T08:45:52;52.57;;;25.27;;
15331;SDS011;7766;51.534;6.722;2023-12-07T08:48:18;55.63;;;23.27;;
15331;SDS011;7766;51.534;6.722;2023-12-07T08:50:44;58.73;;;25.90;;
15331;SDS011;7766;51.534;6.722;2023-12-07T08:53:10;53.00;;;24.43;;
15331;SDS011;7766;51.534;6.722;2023-12-07T08:55:35;54.80;;;22.53;;
15331;SDS011;7766;51.534;6.722;2023-12-07T08:58:01;52.73;;;23.60;;
15331;SDS011;7766;51.534;6.722;2023-12-07T09:00:30;60.17;;;25.77;;
15331;SDS011;7766;51.534;6.722;2023-12-07T09:02:56;73.13;;;24.93;;
15331;SDS011;7766;51.534;6.722;2023-12-07T09:05:22;61.77;;;24.60;;
15331;SDS011;7766;51.534;6.722;2023-12-07T09:07:48;57.77;;;26.77;;
15331;SDS011;7766;51.534;6.722;2023-12-07T09:10:13;57.67;;;26.50;;
15331;SDS011;7766;51.534;6.722;2023-12-07T09:12:39;56.90;;;24.27;;
15331;SDS011;7766;51.534;6.722;2023-12-07T09:15:05;58.43;;;25.30;;
15331;SDS011;7766;51.534;6.722;2023-12-07T09:17:34;54.67;;;25.07;;
15331;SDS011;7766;51.534;6.722;2023-12-07T09:20:00;60.67;;;25.97;;
15331;SDS011;7766;51.534;6.722;2023-12-07T09:22:26;60.63;;;25.10;;
15331;SDS011;7766;51.534;6.722;2023-12-07T09:24:52;62.43;;;26.43;;
15331;SDS011;7766;51.534;6.722;2023-12-07T09:27:17;80.53;;;27.40;;
15331;SDS011;7766;51.534;6.722;2023-12-07T09:29:43;72.37;;;32.83;;
15331;SDS011;7766;51.534;6.722;2023-12-07T09:32:09;59.13;;;26.93;;
15331;SDS011;7766;51.534;6.722;2023-12-07T09:34:35;59.30;;;26.53;;
15331;SDS011;7766;51.534;6.722;2023-12-07T09:37:10;54.97;;;26.63;;
15331;SDS011;7766;51.534;6.722;2023-12-07T09:39:37;51.40;;;26.23;;
15331;SDS011;7766;51.534;6.722;2023-12-07T09:42:03;53.77;;;26.60;;
15331;SDS011;7766;51.534;6.722;2023-12-07T09:44:29;54.77;;;27.17;;
15331;SDS011;7766;51.534;6.722;2023-12-07T09:46:55;56.33;;;27.13;;
15331;SDS011;7766;51.534;6.722;2023-12-07T09:49:21;49.07;;;25.53;;
15331;SDS011;7766;51.534;6.722;2023-12-07T09:51:47;46.10;;;25.43;;
15331;SDS011;7766;51.534;6.722;2023-12-07T09:54:12;39.53;;;25.00;;
15331;SDS011;7766;51.534;6.722;2023-12-07T09:56:38;50.47;;;27.50;;
15331;SDS011;7766;51.534;6.722;2023-12-07T09:59:04;38.27;;;21.40;;
15331;SDS011;7766;51.534;6.722;2023-12-07T10:01:30;30.00;;;17.90;;
15331;SDS011;7766;51.534;6.722;2023-12-07T10:07:01;18.30;;;11.30;;
15331;SDS011;7766;51.534;6.722;2023-12-07T10:09:27;15.93;;;11.17;;
15331;SDS011;7766;51.534;6.722;2023-12-07T10:12:10;18.00;;;11.40;;
15331;SDS011;7766;51.534;6.722;2023-12-07T10:14:37;13.87;;;10.00;;
15331;SDS011;7766;51.534;6.722;2023-12-07T10:17:03;16.23;;;10.03;;
15331;SDS011;7766;51.534;6.722;2023-12-07T10:19:29;13.50;;;10.03;;
15331;SDS011;7766;51.534;6.722;2023-12-07T10:21:54;16.20;;;9.80;;
15331;SDS011;7766;51.534;6.722;2023-12-07T10:24:21;14.90;;;9.27;;
15331;SDS011;7766;51.534;6.722;2023-12-07T10:26:48;16.10;;;10.43;;
15331;SDS011;7766;51.534;6.722;2023-12-07T10:29:17;12.97;;;8.97;;
15331;SDS011;7766;51.534;6.722;2023-12-07T10:31:44;15.57;;;9.40;;
15331;SDS011;7766;51.534;6.722;2023-12-07T10:34:11;15.90;;;9.07;;
15331;SDS011;7766;51.534;6.722;2023-12-07T10:36:37;13.30;;;8.90;;
15331;SDS011;7766;51.534;6.722;2023-12-07T10:39:03;12.17;;;8.60;;
15331;SDS011;7766;51.534;6.722;2023-12-07T10:41:33;13.20;;;8.87;;
15331;SDS011;7766;51.534;6.722;2023-12-07T10:44:00;12.03;;;7.57;;
15331;SDS011;7766;51.534;6.722;2023-12-07T10:46:26;11.03;;;8.17;;
15331;SDS011;7766;51.534;6.722;2023-12-07T10:49:03;11.50;;;7.67;;
15331;SDS011;7766;51.534;6.722;2023-12-07T10:54:16;10.67;;;8.17;;
15331;SDS011;7766;51.534;6.722;2023-12-07T10:56:47;9.53;;;7.27;;
15331;SDS011;7766;51.534;6.722;2023-12-07T10:59:15;16.33;;;11.30;;
15331;SDS011;7766;51.534;6.722;2023-12-07T11:01:42;17.27;;;10.57;;
15331;SDS011;7766;51.534;6.722;2023-12-07T11:04:13;15.43;;;9.20;;
15331;SDS011;7766;51.534;6.722;2023-12-07T11:06:39;13.10;;;8.30;;
15331;SDS011;7766;51.534;6.722;2023-12-07T11:09:07;13.70;;;8.03;;
15331;SDS011;7766;51.534;6.722;2023-12-07T11:11:37;10.50;;;7.63;;
15331;SDS011;7766;51.534;6.722;2023-12-07T11:14:11;12.17;;;7.53;;
15331;SDS011;7766;51.534;6.722;2023-12-07T11:16:41;8.90;;;6.73;;
15331;SDS011;7766;51.534;6.722;2023-12-07T11:21:54;12.40;;;7.57;;
15331;SDS011;7766;51.534;6.722;2023-12-07T11:24:20;11.50;;;6.47;;
15331;SDS011;7766;51.534;6.722;2023-12-07T11:26:48;10.07;;;6.77;;
15331;SDS011;7766;51.534;6.722;2023-12-07T11:29:23;9.70;;;6.63;;
15331;SDS011;7766;51.534;6.722;2023-12-07T11:31:50;9.23;;;6.60;;
15331;SDS011;7766;51.534;6.722;2023-12-07T11:37:01;12.10;;;7.97;;
15331;SDS011;7766;51.534;6.722;2023-12-07T11:39:27;15.30;;;8.13;;
15331;SDS011;7766;51.534;6.722;2023-12-07T11:41:54;12.90;;;8.10;;
15331;SDS011;7766;51.534;6.722;2023-12-07T11:44:37;16.80;;;7.50;;
15331;SDS011;7766;51.534;6.722;2023-12-07T11:47:03;12.83;;;7.53;;
15331;SDS011;7766;51.534;6.722;2023-12-07T11:49:30;15.97;;;8.00;;
15331;SDS011;7766;51.534;6.722;2023-12-07T11:51:57;10.13;;;7.57;;
15331;SDS011;7766;51.534;6.722;2023-12-07T11:54:23;15.20;;;8.50;;
15331;SDS011;7766;51.534;6.722;2023-12-07T11:56:52;14.00;;;7.47;;
15331;SDS011;7766;51.534;6.722;2023-12-07T11:59:18;12.60;;;8.37;;
15331;SDS011;7766;51.534;6.722;2023-12-07T12:01:46;10.07;;;7.53;;
15331;SDS011;7766;51.534;6.722;2023-12-07T12:04:12;13.57;;;7.37;;
15331;SDS011;7766;51.534;6.722;2023-12-07T12:06:38;10.03;;;7.67;;
15331;SDS011;7766;51.534;6.722;2023-12-07T12:09:04;12.13;;;8.00;;
15331;SDS011;7766;51.534;6.722;2023-12-07T12:11:29;10.83;;;8.20;;
15331;SDS011;7766;51.534;6.722;2023-12-07T12:13:56;14.70;;;8.17;;
15331;SDS011;7766;51.534;6.722;2023-12-07T12:16:22;12.13;;;7.70;;
15331;SDS011;7766;51.534;6.722;2023-12-07T12:18:48;12.07;;;8.30;;
15331;SDS011;7766;51.534;6.722;2023-12-07T12:21:14;12.20;;;7.77;;
15331;SDS011;7766;51.534;6.722;2023-12-07T12:23:40;10.87;;;8.10;;
15331;SDS011;7766;51.534;6.722;2023-12-07T12:26:06;10.00;;;7.67;;
15331;SDS011;7766;51.534;6.722;2023-12-07T12:28:33;14.13;;;8.90;;
15331;SDS011;7766;51.534;6.722;2023-12-07T12:31:02;13.77;;;8.50;;
15331;SDS011;7766;51.534;6.722;2023-12-07T12:33:28;11.20;;;8.03;;
15331;SDS011;7766;51.534;6.722;2023-12-07T12:36:00;13.30;;;8.40;;
15331;SDS011;7766;51.534;6.722;2023-12-07T12:38:28;11.30;;;7.90;;
15331;SDS011;7766;51.534;6.722;2023-12-07T12:40:54;13.10;;;8.67;;
15331;SDS011;7766;51.534;6.722;2023-12-07T12:43:19;16.27;;;8.30;;
15331;SDS011;7766;51.534;6.722;2023-12-07T12:45:46;12.57;;;8.00;;
15331;SDS011;7766;51.534;6.722;2023-12-07T12:48:12;11.17;;;6.90;;
15331;SDS011;7766;51.534;6.722;2023-12-07T12:50:38;10.33;;;7.30;;
15331;SDS011;7766;51.534;6.722;2023-12-07T12:53:06;11.67;;;7.23;;
15331;SDS011;7766;51.534;6.722;2023-12-07T12:55:36;16.53;;;7.83;;
15331;SDS011;7766;51.534;6.722;2023-12-07T12:58:03;13.00;;;8.30;;
15331;SDS011;7766;51.534;6.722;2023-12-07T13:00:34;11.63;;;8.13;;
15331;SDS011;7766;51.534;6.722;2023-12-07T13:03:03;12.63;;;8.40;;
15331;SDS011;7766;51.534;6.722;2023-12-07T13:05:30;14.10;;;8.30;;
15331;SDS011;7766;51.534;6.722;2023-12-07T13:07:57;19.73;;;11.20;;
15331;SDS011;7766;51.534;6.722;2023-12-07T13:10:24;26.63;;;13.53;;
15331;SDS011;7766;51.534;6.722;2023-12-07T13:12:50;11.73;;;8.33;;
15331;SDS011;7766;51.534;6.722;2023-12-07T13:15:16;11.93;;;8.40;;
15331;SDS011;7766;51.534;6.722;2023-12-07T13:17:42;12.20;;;9.10;;
15331;SDS011;7766;51.534;6.722;2023-12-07T13:20:08;10.67;;;7.43;;
15331;SDS011;7766;51.534;6.722;2023-12-07T13:22:39;11.33;;;7.50;;
15331;SDS011;7766;51.534;6.722;2023-12-07T13:25:06;10.87;;;8.07;;
15331;SDS011;7766;51.534;6.722;2023-12-07T13:27:32;12.10;;;8.23;;
15331;SDS011;7766;51.534;6.722;2023-12-07T13:29:58;15.50;;;11.13;;
15331;SDS011;7766;51.534;6.722;2023-12-07T13:32:24;10.93;;;7.93;;
15331;SDS011;7766;51.534;6.722;2023-12-07T13:34:50;12.00;;;8.20;;
15331;SDS011;7766;51.534;6.722;2023-12-07T13:37:15;11.00;;;7.37;;
15331;SDS011;7766;51.534;6.722;2023-12-07T13:39:41;8.90;;;6.73;;
15331;SDS011;7766;51.534;6.722;2023-12-07T13:42:08;8.93;;;7.03;;
15331;SDS011;7766;51.534;6.722;2023-12-07T13:44:35;14.47;;;6.57;;
15331;SDS011;7766;51.534;6.722;2023-12-07T13:47:00;8.97;;;6.73;;
15331;SDS011;7766;51.534;6.722;2023-12-07T13:49:27;9.50;;;6.57;;
15331;SDS011;7766;51.534;6.722;2023-12-07T13:51:52;12.43;;;6.73;;
15331;SDS011;7766;51.534;6.722;2023-12-07T13:54:17;8.60;;;6.30;;
15331;SDS011;7766;51.534;6.722;2023-12-07T13:56:43;7.77;;;5.90;;
15331;SDS011;7766;51.534;6.722;2023-12-07T13:59:09;11.70;;;6.60;;
15331;SDS011;7766;51.534;6.722;2023-12-07T14:01:37;11.93;;;6.33;;
15331;SDS011;7766;51.534;6.722;2023-12-07T14:04:04;12.13;;;6.77;;
15331;SDS011;7766;51.534;6.722;2023-12-07T14:06:31;9.70;;;6.77;;
15331;SDS011;7766;51.534;6.722;2023-12-07T14:09:00;9.63;;;6.27;;
15331;SDS011;7766;51.534;6.722;2023-12-07T14:11:26;11.90;;;7.10;;
15331;SDS011;7766;51.534;6.722;2023-12-07T14:13:51;10.00;;;7.33;;
15331;SDS011;7766;51.534;6.722;2023-12-07T14:16:19;9.23;;;7.63;;
15331;SDS011;7766;51.534;6.722;2023-12-07T14:18:46;8.67;;;6.40;;
15331;SDS011;7766;51.534;6.722;2023-12-07T14:21:12;9.30;;;6.83;;
15331;SDS011;7766;51.534;6.722;2023-12-07T14:23:39;8.73;;;6.17;;
15331;SDS011;7766;51.534;6.722;2023-12-07T14:26:04;13.13;;;7.03;;
15331;SDS011;7766;51.534;6.722;2023-12-07T14:28:30;10.47;;;6.60;;
15331;SDS011;7766;51.534;6.722;2023-12-07T14:30:58;8.13;;;6.13;;
15331;SDS011;7766;51.534;6.722;2023-12-07T14:33:24;11.83;;;7.00;;
15331;SDS011;7766;51.534;6.722;2023-12-07T14:35:50;11.23;;;6.97;;
15331;SDS011;7766;51.534;6.722;2023-12-07T14:38:15;9.50;;;6.60;;
15331;SDS011;7766;51.534;6.722;2023-12-07T14:40:41;9.67;;;6.37;;
15331;SDS011;7766;51.534;6.722;2023-12-07T14:43:06;8.50;;;7.03;;
15331;SDS011;7766;51.534;6.722;2023-12-07T14:45:32;11.20;;;6.80;;
15331;SDS011;7766;51.534;6.722;2023-12-07T14:47:57;10.63;;;6.90;;